sensor_id;sensor_type;location;lat;lon;timestamp;temperature;humidity
22738;DHT22;11536;50.860;4.286;2024-01-25T00:02:18;10.50;99.90
22738;DHT22;11536;50.860;4.286;2024-01-25T00:04:44;10.50;99.90
22738;DHT22;11536;50.860;4.286;2024-01-25T00:07:09;10.40;99.90
22738;DHT22;11536;50.860;4.286;2024-01-25T00:09:35;10.40;99.90
22738;DHT22;11536;50.860;4.286;2024-01-25T00:12:01;10.40;99.90
22738;DHT22;11536;50.860;4.286;2024-01-25T00:14:26;10.40;99.90
22738;DHT22;11536;50.860;4.286;2024-01-25T00:16:52;10.40;99.90
22738;DHT22;11536;50.860;4.286;2024-01-25T00:19:18;10.40;99.90
22738;DHT22;11536;50.860;4.286;2024-01-25T00:21:44;10.30;99.90
22738;DHT22;11536;50.860;4.286;2024-01-25T00:24:13;10.30;99.90
22738;DHT22;11536;50.860;4.286;2024-01-25T00:26:39;10.30;99.90
22738;DHT22;11536;50.860;4.286;2024-01-25T00:29:05;10.20;99.90
22738;DHT22;11536;50.860;4.286;2024-01-25T00:31:30;10.20;99.90
22738;DHT22;11536;50.860;4.286;2024-01-25T00:34:00;10.20;99.90
22738;DHT22;11536;50.860;4.286;2024-01-25T00:36:26;10.10;99.90
22738;DHT22;11536;50.860;4.286;2024-01-25T00:38:52;10.10;99.90
22738;DHT22;11536;50.860;4.286;2024-01-25T00:41:18;10.10;99.90
22738;DHT22;11536;50.860;4.286;2024-01-25T00:43:45;10.10;99.90
22738;DHT22;11536;50.860;4.286;2024-01-25T00:46:11;10.00;99.90
22738;DHT22;11536;50.860;4.286;2024-01-25T00:48:37;10.00;99.90
22738;DHT22;11536;50.860;4.286;2024-01-25T00:51:07;10.00;99.90
22738;DHT22;11536;50.860;4.286;2024-01-25T00:53:33;10.00;99.90
22738;DHT22;11536;50.860;4.286;2024-01-25T00:55:59;9.90;99.90
22738;DHT22;11536;50.860;4.286;2024-01-25T00:58:25;9.90;99.90
22738;DHT22;11536;50.860;4.286;2024-01-25T01:00:51;9.80;99.90
22738;DHT22;11536;50.860;4.286;2024-01-25T01:03:18;9.80;99.90
22738;DHT22;11536;50.860;4.286;2024-01-25T01:05:45;9.80;99.90
22738;DHT22;11536;50.860;4.286;2024-01-25T01:08:11;9.70;99.90
22738;DHT22;11536;50.860;4.286;2024-01-25T01:10:37;9.70;99.90
22738;DHT22;11536;50.860;4.286;2024-01-25T01:13:02;9.70;99.90
22738;DHT22;11536;50.860;4.286;2024-01-25T01:15:28;9.70;99.90
22738;DHT22;11536;50.860;4.286;2024-01-25T01:17:54;9.60;99.90
22738;DHT22;11536;50.860;4.286;2024-01-25T01:20:20;9.60;99.90
22738;DHT22;11536;50.860;4.286;2024-01-25T01:22:45;9.60;99.90
22738;DHT22;11536;50.860;4.286;2024-01-25T01:25:11;9.50;99.90
22738;DHT22;11536;50.860;4.286;2024-01-25T01:27:36;9.50;99.90
22738;DHT22;11536;50.860;4.286;2024-01-25T01:30:03;9.50;99.90
22738;DHT22;11536;50.860;4.286;2024-01-25T01:32:28;9.50;99.90
22738;DHT22;11536;50.860;4.286;2024-01-25T01:34:54;9.40;99.90
22738;DHT22;11536;50.860;4.286;2024-01-25T01:37:20;9.40;99.90
22738;DHT22;11536;50.860;4.286;2024-01-25T01:39:45;9.40;99.90
22738;DHT22;11536;50.860;4.286;2024-01-25T01:42:11;9.30;99.90
22738;DHT22;11536;50.860;4.286;2024-01-25T01:44:37;9.30;99.90
22738;DHT22;11536;50.860;4.286;2024-01-25T01:47:04;9.30;99.90
22738;DHT22;11536;50.860;4.286;2024-01-25T01:49:29;9.30;99.90
22738;DHT22;11536;50.860;4.286;2024-01-25T01:51:56;9.30;99.90
22738;DHT22;11536;50.860;4.286;2024-01-25T01:54:22;9.20;99.90
22738;DHT22;11536;50.860;4.286;2024-01-25T01:56:48;9.20;99.90
22738;DHT22;11536;50.860;4.286;2024-01-25T01:59:15;9.20;99.90
22738;DHT22;11536;50.860;4.286;2024-01-25T02:01:41;9.20;99.90
22738;DHT22;11536;50.860;4.286;2024-01-25T02:04:07;9.10;99.90
22738;DHT22;11536;50.860;4.286;2024-01-25T02:06:33;9.10;99.90
22738;DHT22;11536;50.860;4.286;2024-01-25T02:09:00;9.10;99.90
22738;DHT22;11536;50.860;4.286;2024-01-25T02:11:26;9.10;99.90
22738;DHT22;11536;50.860;4.286;2024-01-25T02:13:52;9.10;99.90
22738;DHT22;11536;50.860;4.286;2024-01-25T02:16:18;9.00;99.90
22738;DHT22;11536;50.860;4.286;2024-01-25T02:18:45;9.00;99.90
22738;DHT22;11536;50.860;4.286;2024-01-25T02:21:11;9.00;99.90
22738;DHT22;11536;50.860;4.286;2024-01-25T02:23:36;8.90;99.90
22738;DHT22;11536;50.860;4.286;2024-01-25T02:26:02;8.90;99.90
22738;DHT22;11536;50.860;4.286;2024-01-25T02:28:27;8.90;99.90
22738;DHT22;11536;50.860;4.286;2024-01-25T02:30:53;8.80;99.90
22738;DHT22;11536;50.860;4.286;2024-01-25T02:33:19;8.80;99.90
22738;DHT22;11536;50.860;4.286;2024-01-25T02:35:44;8.80;99.90
22738;DHT22;11536;50.860;4.286;2024-01-25T02:38:10;8.70;99.90
22738;DHT22;11536;50.860;4.286;2024-01-25T02:40:35;8.70;99.90
22738;DHT22;11536;50.860;4.286;2024-01-25T02:43:01;8.70;99.90
22738;DHT22;11536;50.860;4.286;2024-01-25T02:45:27;8.70;99.90
22738;DHT22;11536;50.860;4.286;2024-01-25T02:47:52;8.60;99.90
22738;DHT22;11536;50.860;4.286;2024-01-25T02:50:18;8.60;99.90
22738;DHT22;11536;50.860;4.286;2024-01-25T02:52:43;8.50;99.90
22738;DHT22;11536;50.860;4.286;2024-01-25T02:55:09;8.50;99.90
22738;DHT22;11536;50.860;4.286;2024-01-25T02:57:35;8.50;99.90
22738;DHT22;11536;50.860;4.286;2024-01-25T03:00:00;8.50;99.90
22738;DHT22;11536;50.860;4.286;2024-01-25T03:02:26;8.50;99.90
22738;DHT22;11536;50.860;4.286;2024-01-25T03:04:52;8.50;99.90
22738;DHT22;11536;50.860;4.286;2024-01-25T03:07:17;8.40;99.90
22738;DHT22;11536;50.860;4.286;2024-01-25T03:09:43;8.40;99.90
22738;DHT22;11536;50.860;4.286;2024-01-25T03:12:09;8.50;99.90
22738;DHT22;11536;50.860;4.286;2024-01-25T03:14:35;8.40;99.90
22738;DHT22;11536;50.860;4.286;2024-01-25T03:17:00;8.40;99.90
22738;DHT22;11536;50.860;4.286;2024-01-25T03:19:27;8.30;99.90
22738;DHT22;11536;50.860;4.286;2024-01-25T03:21:53;8.30;99.90
22738;DHT22;11536;50.860;4.286;2024-01-25T03:24:20;8.20;99.90
22738;DHT22;11536;50.860;4.286;2024-01-25T03:26:46;8.30;99.90
22738;DHT22;11536;50.860;4.286;2024-01-25T03:29:11;8.30;99.90
22738;DHT22;11536;50.860;4.286;2024-01-25T03:31:37;8.20;99.90
22738;DHT22;11536;50.860;4.286;2024-01-25T03:34:03;8.20;99.90
22738;DHT22;11536;50.860;4.286;2024-01-25T03:36:28;8.20;99.90
22738;DHT22;11536;50.860;4.286;2024-01-25T03:38:54;8.10;99.90
22738;DHT22;11536;50.860;4.286;2024-01-25T03:41:20;8.10;99.90
22738;DHT22;11536;50.860;4.286;2024-01-25T03:43:45;8.10;99.90
22738;DHT22;11536;50.860;4.286;2024-01-25T03:46:14;8.10;99.90
22738;DHT22;11536;50.860;4.286;2024-01-25T03:48:40;8.10;99.90
22738;DHT22;11536;50.860;4.286;2024-01-25T03:51:05;8.10;99.90
22738;DHT22;11536;50.860;4.286;2024-01-25T03:53:31;8.10;99.90
22738;DHT22;11536;50.860;4.286;2024-01-25T03:55:56;8.10;99.90
22738;DHT22;11536;50.860;4.286;2024-01-25T03:58:22;8.10;99.90
22738;DHT22;11536;50.860;4.286;2024-01-25T04:00:48;8.00;99.90
22738;DHT22;11536;50.860;4.286;2024-01-25T04:03:13;8.00;99.90
22738;DHT22;11536;50.860;4.286;2024-01-25T04:05:39;8.00;99.90
22738;DHT22;11536;50.860;4.286;2024-01-25T04:08:05;8.00;99.90
22738;DHT22;11536;50.860;4.286;2024-01-25T04:10:31;8.00;99.90
22738;DHT22;11536;50.860;4.286;2024-01-25T04:12:57;8.00;99.90
22738;DHT22;11536;50.860;4.286;2024-01-25T04:15:23;7.90;99.90
22738;DHT22;11536;50.860;4.286;2024-01-25T04:17:48;7.90;99.90
22738;DHT22;11536;50.860;4.286;2024-01-25T04:20:15;7.90;99.90
22738;DHT22;11536;50.860;4.286;2024-01-25T04:22:41;7.90;99.90
22738;DHT22;11536;50.860;4.286;2024-01-25T04:25:07;7.90;99.90
22738;DHT22;11536;50.860;4.286;2024-01-25T04:27:32;7.90;99.90
22738;DHT22;11536;50.860;4.286;2024-01-25T04:29:58;7.90;99.90
22738;DHT22;11536;50.860;4.286;2024-01-25T04:32:24;7.90;99.90
22738;DHT22;11536;50.860;4.286;2024-01-25T04:34:49;7.80;99.90
22738;DHT22;11536;50.860;4.286;2024-01-25T04:37:15;7.80;99.90
22738;DHT22;11536;50.860;4.286;2024-01-25T04:39:41;7.80;99.90
22738;DHT22;11536;50.860;4.286;2024-01-25T04:42:07;7.80;99.90
22738;DHT22;11536;50.860;4.286;2024-01-25T04:44:33;7.80;99.90
22738;DHT22;11536;50.860;4.286;2024-01-25T04:46:59;7.80;99.90
22738;DHT22;11536;50.860;4.286;2024-01-25T04:49:25;7.80;99.90
22738;DHT22;11536;50.860;4.286;2024-01-25T04:51:51;7.80;99.90
22738;DHT22;11536;50.860;4.286;2024-01-25T04:54:16;7.80;99.90
22738;DHT22;11536;50.860;4.286;2024-01-25T04:56:44;7.70;99.90
22738;DHT22;11536;50.860;4.286;2024-01-25T04:59:10;7.70;99.90
22738;DHT22;11536;50.860;4.286;2024-01-25T05:01:36;7.70;99.90
22738;DHT22;11536;50.860;4.286;2024-01-25T05:04:01;7.70;99.90
22738;DHT22;11536;50.860;4.286;2024-01-25T05:06:27;7.60;99.90
22738;DHT22;11536;50.860;4.286;2024-01-25T05:08:53;7.60;99.90
22738;DHT22;11536;50.860;4.286;2024-01-25T05:11:18;7.60;99.90
22738;DHT22;11536;50.860;4.286;2024-01-25T05:13:44;7.60;99.90
22738;DHT22;11536;50.860;4.286;2024-01-25T05:16:10;7.50;99.90
22738;DHT22;11536;50.860;4.286;2024-01-25T05:18:36;7.50;99.90
22738;DHT22;11536;50.860;4.286;2024-01-25T05:21:02;7.60;99.90
22738;DHT22;11536;50.860;4.286;2024-01-25T05:23:27;7.50;99.90
22738;DHT22;11536;50.860;4.286;2024-01-25T05:25:53;7.60;99.90
22738;DHT22;11536;50.860;4.286;2024-01-25T05:28:19;7.60;99.90
22738;DHT22;11536;50.860;4.286;2024-01-25T05:30:44;7.60;99.90
22738;DHT22;11536;50.860;4.286;2024-01-25T05:33:10;7.60;99.90
22738;DHT22;11536;50.860;4.286;2024-01-25T05:35:36;7.60;99.90
22738;DHT22;11536;50.860;4.286;2024-01-25T05:38:01;7.60;99.90
22738;DHT22;11536;50.860;4.286;2024-01-25T05:40:27;7.60;99.90
22738;DHT22;11536;50.860;4.286;2024-01-25T05:42:53;7.60;99.90
22738;DHT22;11536;50.860;4.286;2024-01-25T05:45:18;7.60;99.90
22738;DHT22;11536;50.860;4.286;2024-01-25T05:47:47;7.60;99.90
22738;DHT22;11536;50.860;4.286;2024-01-25T05:50:13;7.60;99.90
22738;DHT22;11536;50.860;4.286;2024-01-25T05:52:38;7.60;99.90
22738;DHT22;11536;50.860;4.286;2024-01-25T05:55:05;7.60;99.90
22738;DHT22;11536;50.860;4.286;2024-01-25T05:57:31;7.60;99.90
22738;DHT22;11536;50.860;4.286;2024-01-25T05:59:57;7.60;99.90
22738;DHT22;11536;50.860;4.286;2024-01-25T06:02:22;7.60;99.90
22738;DHT22;11536;50.860;4.286;2024-01-25T06:04:48;7.60;99.90
22738;DHT22;11536;50.860;4.286;2024-01-25T06:07:13;7.60;99.90
22738;DHT22;11536;50.860;4.286;2024-01-25T06:09:39;7.60;99.90
22738;DHT22;11536;50.860;4.286;2024-01-25T06:12:05;7.60;99.90
22738;DHT22;11536;50.860;4.286;2024-01-25T06:14:30;7.60;99.90
22738;DHT22;11536;50.860;4.286;2024-01-25T06:16:56;7.60;99.90
22738;DHT22;11536;50.860;4.286;2024-01-25T06:19:22;7.60;99.90
22738;DHT22;11536;50.860;4.286;2024-01-25T06:21:48;7.60;99.90
22738;DHT22;11536;50.860;4.286;2024-01-25T06:24:13;7.60;99.90
22738;DHT22;11536;50.860;4.286;2024-01-25T06:26:39;7.60;99.90
22738;DHT22;11536;50.860;4.286;2024-01-25T06:29:04;7.60;99.90
22738;DHT22;11536;50.860;4.286;2024-01-25T06:31:30;7.60;99.90
22738;DHT22;11536;50.860;4.286;2024-01-25T06:33:56;7.60;99.90
22738;DHT22;11536;50.860;4.286;2024-01-25T06:36:22;7.60;99.90
22738;DHT22;11536;50.860;4.286;2024-01-25T06:38:48;7.60;99.90
22738;DHT22;11536;50.860;4.286;2024-01-25T06:41:14;7.60;99.90
22738;DHT22;11536;50.860;4.286;2024-01-25T06:43:40;7.60;99.90
22738;DHT22;11536;50.860;4.286;2024-01-25T06:46:06;7.60;99.90
22738;DHT22;11536;50.860;4.286;2024-01-25T06:48:32;7.60;99.90
22738;DHT22;11536;50.860;4.286;2024-01-25T06:50:58;7.50;99.90
22738;DHT22;11536;50.860;4.286;2024-01-25T06:53:24;7.50;99.90
22738;DHT22;11536;50.860;4.286;2024-01-25T06:55:49;7.50;99.90
22738;DHT22;11536;50.860;4.286;2024-01-25T06:58:15;7.50;99.90
22738;DHT22;11536;50.860;4.286;2024-01-25T07:00:40;7.50;99.90
22738;DHT22;11536;50.860;4.286;2024-01-25T07:03:08;7.50;99.90
22738;DHT22;11536;50.860;4.286;2024-01-25T07:05:33;7.50;99.90
22738;DHT22;11536;50.860;4.286;2024-01-25T07:08:01;7.50;99.90
22738;DHT22;11536;50.860;4.286;2024-01-25T07:10:27;7.40;99.90
22738;DHT22;11536;50.860;4.286;2024-01-25T07:12:52;7.50;99.90
22738;DHT22;11536;50.860;4.286;2024-01-25T07:15:19;7.50;99.90
22738;DHT22;11536;50.860;4.286;2024-01-25T07:17:45;7.50;99.90
22738;DHT22;11536;50.860;4.286;2024-01-25T07:20:11;7.50;99.90
22738;DHT22;11536;50.860;4.286;2024-01-25T07:22:36;7.40;99.90
22738;DHT22;11536;50.860;4.286;2024-01-25T07:25:02;7.40;99.90
22738;DHT22;11536;50.860;4.286;2024-01-25T07:27:28;7.40;99.90
22738;DHT22;11536;50.860;4.286;2024-01-25T07:29:53;7.40;99.90
22738;DHT22;11536;50.860;4.286;2024-01-25T07:32:19;7.40;99.90
22738;DHT22;11536;50.860;4.286;2024-01-25T07:34:45;7.40;99.90
22738;DHT22;11536;50.860;4.286;2024-01-25T07:37:12;7.40;99.90
22738;DHT22;11536;50.860;4.286;2024-01-25T07:39:37;7.50;99.90
22738;DHT22;11536;50.860;4.286;2024-01-25T07:42:03;7.50;99.90
22738;DHT22;11536;50.860;4.286;2024-01-25T07:44:29;7.50;99.90
22738;DHT22;11536;50.860;4.286;2024-01-25T07:46:55;7.50;99.90
22738;DHT22;11536;50.860;4.286;2024-01-25T07:49:20;7.50;99.90
22738;DHT22;11536;50.860;4.286;2024-01-25T07:51:46;7.50;99.90
22738;DHT22;11536;50.860;4.286;2024-01-25T07:54:13;7.50;99.90
22738;DHT22;11536;50.860;4.286;2024-01-25T07:56:38;7.60;99.90
22738;DHT22;11536;50.860;4.286;2024-01-25T07:59:04;7.70;99.90
22738;DHT22;11536;50.860;4.286;2024-01-25T08:01:30;7.70;99.90
22738;DHT22;11536;50.860;4.286;2024-01-25T08:03:55;7.70;99.90
22738;DHT22;11536;50.860;4.286;2024-01-25T08:06:25;7.70;99.90
22738;DHT22;11536;50.860;4.286;2024-01-25T08:08:51;7.70;99.90
22738;DHT22;11536;50.860;4.286;2024-01-25T08:11:17;7.80;99.90
22738;DHT22;11536;50.860;4.286;2024-01-25T08:13:45;7.80;99.90
22738;DHT22;11536;50.860;4.286;2024-01-25T08:16:12;7.80;99.90
22738;DHT22;11536;50.860;4.286;2024-01-25T08:18:39;7.80;99.90
22738;DHT22;11536;50.860;4.286;2024-01-25T08:21:05;7.80;99.90
22738;DHT22;11536;50.860;4.286;2024-01-25T08:23:31;7.90;99.90
22738;DHT22;11536;50.860;4.286;2024-01-25T08:25:56;7.90;99.90
22738;DHT22;11536;50.860;4.286;2024-01-25T08:28:22;7.90;99.90
22738;DHT22;11536;50.860;4.286;2024-01-25T08:30:47;8.00;99.90
22738;DHT22;11536;50.860;4.286;2024-01-25T08:33:14;7.90;99.90
22738;DHT22;11536;50.860;4.286;2024-01-25T08:35:40;8.00;99.90
22738;DHT22;11536;50.860;4.286;2024-01-25T08:38:08;8.00;99.90
22738;DHT22;11536;50.860;4.286;2024-01-25T08:40:34;8.00;99.90
22738;DHT22;11536;50.860;4.286;2024-01-25T08:43:00;8.10;99.90
22738;DHT22;11536;50.860;4.286;2024-01-25T08:45:25;8.10;99.90
22738;DHT22;11536;50.860;4.286;2024-01-25T08:47:51;8.10;99.90
22738;DHT22;11536;50.860;4.286;2024-01-25T08:50:17;8.10;99.90
22738;DHT22;11536;50.860;4.286;2024-01-25T08:52:43;8.10;99.90
22738;DHT22;11536;50.860;4.286;2024-01-25T08:55:09;8.10;99.90
22738;DHT22;11536;50.860;4.286;2024-01-25T08:57:35;8.20;99.90
22738;DHT22;11536;50.860;4.286;2024-01-25T09:00:01;8.20;99.90
22738;DHT22;11536;50.860;4.286;2024-01-25T09:02:27;8.20;99.90
22738;DHT22;11536;50.860;4.286;2024-01-25T09:04:55;8.20;99.90
22738;DHT22;11536;50.860;4.286;2024-01-25T09:07:21;8.20;99.90
22738;DHT22;11536;50.860;4.286;2024-01-25T09:09:47;8.30;99.90
22738;DHT22;11536;50.860;4.286;2024-01-25T09:12:13;8.30;99.90
22738;DHT22;11536;50.860;4.286;2024-01-25T09:14:39;8.40;99.90
22738;DHT22;11536;50.860;4.286;2024-01-25T09:17:05;8.40;99.90
22738;DHT22;11536;50.860;4.286;2024-01-25T09:19:31;8.40;99.90
22738;DHT22;11536;50.860;4.286;2024-01-25T09:21:57;8.40;99.90
22738;DHT22;11536;50.860;4.286;2024-01-25T09:24:25;8.40;99.90
22738;DHT22;11536;50.860;4.286;2024-01-25T09:26:51;8.50;99.90
22738;DHT22;11536;50.860;4.286;2024-01-25T09:29:16;8.60;99.90
22738;DHT22;11536;50.860;4.286;2024-01-25T09:31:42;8.50;99.90
22738;DHT22;11536;50.860;4.286;2024-01-25T09:34:07;8.50;99.90
22738;DHT22;11536;50.860;4.286;2024-01-25T09:36:33;8.50;99.90
22738;DHT22;11536;50.860;4.286;2024-01-25T09:38:58;8.60;99.90
22738;DHT22;11536;50.860;4.286;2024-01-25T09:41:24;8.60;99.90
22738;DHT22;11536;50.860;4.286;2024-01-25T09:43:49;8.60;99.90
22738;DHT22;11536;50.860;4.286;2024-01-25T09:46:15;8.60;99.90
22738;DHT22;11536;50.860;4.286;2024-01-25T09:48:42;8.60;99.90
22738;DHT22;11536;50.860;4.286;2024-01-25T09:51:11;8.70;99.90
22738;DHT22;11536;50.860;4.286;2024-01-25T09:53:39;8.70;99.90
22738;DHT22;11536;50.860;4.286;2024-01-25T09:56:07;8.80;99.90
22738;DHT22;11536;50.860;4.286;2024-01-25T09:58:40;8.80;99.90
22738;DHT22;11536;50.860;4.286;2024-01-25T10:01:12;8.80;99.90
22738;DHT22;11536;50.860;4.286;2024-01-25T10:03:41;8.80;99.90
22738;DHT22;11536;50.860;4.286;2024-01-25T10:06:07;8.80;99.90
22738;DHT22;11536;50.860;4.286;2024-01-25T10:08:34;8.80;99.90
22738;DHT22;11536;50.860;4.286;2024-01-25T10:10:59;8.80;99.90
22738;DHT22;11536;50.860;4.286;2024-01-25T10:13:26;8.90;99.90
22738;DHT22;11536;50.860;4.286;2024-01-25T10:15:53;8.90;99.90
22738;DHT22;11536;50.860;4.286;2024-01-25T10:18:21;8.90;99.90
22738;DHT22;11536;50.860;4.286;2024-01-25T10:20:47;8.90;99.90
22738;DHT22;11536;50.860;4.286;2024-01-25T10:23:12;8.90;99.90
22738;DHT22;11536;50.860;4.286;2024-01-25T10:25:38;8.90;99.90
22738;DHT22;11536;50.860;4.286;2024-01-25T10:28:05;9.00;99.90
22738;DHT22;11536;50.860;4.286;2024-01-25T10:30:35;9.00;99.90
22738;DHT22;11536;50.860;4.286;2024-01-25T10:33:02;9.10;99.90
22738;DHT22;11536;50.860;4.286;2024-01-25T10:35:31;9.10;99.90
22738;DHT22;11536;50.860;4.286;2024-01-25T10:37:57;9.10;99.90
22738;DHT22;11536;50.860;4.286;2024-01-25T10:40:23;9.20;99.90
22738;DHT22;11536;50.860;4.286;2024-01-25T10:42:49;9.20;99.90
22738;DHT22;11536;50.860;4.286;2024-01-25T10:45:15;9.30;99.90
22738;DHT22;11536;50.860;4.286;2024-01-25T10:47:40;9.30;99.90
22738;DHT22;11536;50.860;4.286;2024-01-25T10:50:09;9.30;99.90
22738;DHT22;11536;50.860;4.286;2024-01-25T10:52:37;9.40;99.90
22738;DHT22;11536;50.860;4.286;2024-01-25T10:55:04;9.40;99.90
22738;DHT22;11536;50.860;4.286;2024-01-25T10:57:37;9.40;99.90
22738;DHT22;11536;50.860;4.286;2024-01-25T11:00:06;9.50;99.90
22738;DHT22;11536;50.860;4.286;2024-01-25T11:02:35;9.50;99.90
22738;DHT22;11536;50.860;4.286;2024-01-25T11:05:00;9.60;99.90
22738;DHT22;11536;50.860;4.286;2024-01-25T11:07:26;9.60;99.90
22738;DHT22;11536;50.860;4.286;2024-01-25T11:09:52;9.60;99.90
22738;DHT22;11536;50.860;4.286;2024-01-25T11:12:19;9.70;99.90
22738;DHT22;11536;50.860;4.286;2024-01-25T11:14:44;9.70;99.90
22738;DHT22;11536;50.860;4.286;2024-01-25T11:17:20;9.70;99.90
22738;DHT22;11536;50.860;4.286;2024-01-25T11:19:47;9.70;99.90
22738;DHT22;11536;50.860;4.286;2024-01-25T11:22:13;9.80;99.90
22738;DHT22;11536;50.860;4.286;2024-01-25T11:24:39;9.80;99.90
22738;DHT22;11536;50.860;4.286;2024-01-25T11:27:05;9.80;99.90
22738;DHT22;11536;50.860;4.286;2024-01-25T11:29:32;9.90;99.90
22738;DHT22;11536;50.860;4.286;2024-01-25T11:31:58;9.90;99.90
22738;DHT22;11536;50.860;4.286;2024-01-25T11:34:24;10.00;99.90
22738;DHT22;11536;50.860;4.286;2024-01-25T11:36:50;10.00;99.90
22738;DHT22;11536;50.860;4.286;2024-01-25T11:39:16;10.10;99.90
22738;DHT22;11536;50.860;4.286;2024-01-25T11:41:43;10.10;99.90
22738;DHT22;11536;50.860;4.286;2024-01-25T11:44:13;10.10;99.90
22738;DHT22;11536;50.860;4.286;2024-01-25T11:46:39;10.10;99.90
22738;DHT22;11536;50.860;4.286;2024-01-25T11:49:05;10.20;99.90
22738;DHT22;11536;50.860;4.286;2024-01-25T11:51:32;10.20;99.90
22738;DHT22;11536;50.860;4.286;2024-01-25T11:53:58;10.20;99.90
22738;DHT22;11536;50.860;4.286;2024-01-25T11:56:32;10.30;99.90
22738;DHT22;11536;50.860;4.286;2024-01-25T11:58:59;10.30;99.90
22738;DHT22;11536;50.860;4.286;2024-01-25T12:01:25;10.30;99.90
22738;DHT22;11536;50.860;4.286;2024-01-25T12:03:51;10.40;99.90
22738;DHT22;11536;50.860;4.286;2024-01-25T12:06:17;10.30;99.90
22738;DHT22;11536;50.860;4.286;2024-01-25T12:08:44;10.40;99.90
22738;DHT22;11536;50.860;4.286;2024-01-25T12:11:11;10.40;99.90
22738;DHT22;11536;50.860;4.286;2024-01-25T12:13:41;10.40;99.90
22738;DHT22;11536;50.860;4.286;2024-01-25T12:16:08;10.40;99.90
22738;DHT22;11536;50.860;4.286;2024-01-25T12:18:34;10.50;99.90
22738;DHT22;11536;50.860;4.286;2024-01-25T12:21:03;10.50;99.90
22738;DHT22;11536;50.860;4.286;2024-01-25T12:23:38;10.50;99.90
22738;DHT22;11536;50.860;4.286;2024-01-25T12:26:08;10.50;99.90
22738;DHT22;11536;50.860;4.286;2024-01-25T12:28:34;10.50;99.90
22738;DHT22;11536;50.860;4.286;2024-01-25T12:31:00;10.50;99.90
22738;DHT22;11536;50.860;4.286;2024-01-25T12:33:27;10.50;99.90
22738;DHT22;11536;50.860;4.286;2024-01-25T12:35:53;10.50;99.90
22738;DHT22;11536;50.860;4.286;2024-01-25T12:38:22;10.60;99.90
22738;DHT22;11536;50.860;4.286;2024-01-25T12:40:48;10.60;99.90
22738;DHT22;11536;50.860;4.286;2024-01-25T12:43:16;10.60;99.90
22738;DHT22;11536;50.860;4.286;2024-01-25T12:45:42;10.60;99.90
22738;DHT22;11536;50.860;4.286;2024-01-25T12:48:07;10.60;99.90
22738;DHT22;11536;50.860;4.286;2024-01-25T12:50:35;10.60;99.90
22738;DHT22;11536;50.860;4.286;2024-01-25T12:53:01;10.60;99.90
22738;DHT22;11536;50.860;4.286;2024-01-25T12:55:30;10.60;99.90
22738;DHT22;11536;50.860;4.286;2024-01-25T12:57:57;10.60;99.90
22738;DHT22;11536;50.860;4.286;2024-01-25T13:00:23;10.60;99.90
22738;DHT22;11536;50.860;4.286;2024-01-25T13:02:49;10.60;99.90
22738;DHT22;11536;50.860;4.286;2024-01-25T13:05:15;10.70;99.90
22738;DHT22;11536;50.860;4.286;2024-01-25T13:07:41;10.70;99.90
22738;DHT22;11536;50.860;4.286;2024-01-25T13:10:09;10.70;99.90
22738;DHT22;11536;50.860;4.286;2024-01-25T13:12:37;10.70;99.90
22738;DHT22;11536;50.860;4.286;2024-01-25T13:15:02;10.70;99.90
22738;DHT22;11536;50.860;4.286;2024-01-25T13:17:28;10.70;99.90
22738;DHT22;11536;50.860;4.286;2024-01-25T13:19:55;10.80;99.90
22738;DHT22;11536;50.860;4.286;2024-01-25T13:22:21;10.80;99.90
22738;DHT22;11536;50.860;4.286;2024-01-25T13:24:47;10.80;99.90
22738;DHT22;11536;50.860;4.286;2024-01-25T13:27:13;10.80;99.90
22738;DHT22;11536;50.860;4.286;2024-01-25T13:29:38;10.80;99.90
22738;DHT22;11536;50.860;4.286;2024-01-25T13:32:04;10.90;99.90
22738;DHT22;11536;50.860;4.286;2024-01-25T13:34:30;10.90;99.90
22738;DHT22;11536;50.860;4.286;2024-01-25T13:36:55;10.90;99.90
22738;DHT22;11536;50.860;4.286;2024-01-25T13:39:21;10.90;99.90
22738;DHT22;11536;50.860;4.286;2024-01-25T13:41:47;10.90;99.90
22738;DHT22;11536;50.860;4.286;2024-01-25T13:44:14;10.90;99.90
22738;DHT22;11536;50.860;4.286;2024-01-25T13:46:40;11.00;99.90
22738;DHT22;11536;50.860;4.286;2024-01-25T13:49:05;11.00;99.90
22738;DHT22;11536;50.860;4.286;2024-01-25T13:51:31;11.00;99.90
22738;DHT22;11536;50.860;4.286;2024-01-25T13:53:57;11.00;99.90
22738;DHT22;11536;50.860;4.286;2024-01-25T13:56:22;11.00;99.90
22738;DHT22;11536;50.860;4.286;2024-01-25T13:58:48;11.00;99.90
22738;DHT22;11536;50.860;4.286;2024-01-25T14:01:13;11.10;99.90
22738;DHT22;11536;50.860;4.286;2024-01-25T14:03:39;11.10;99.90
22738;DHT22;11536;50.860;4.286;2024-01-25T14:06:05;11.10;99.90
22738;DHT22;11536;50.860;4.286;2024-01-25T14:08:31;11.10;99.90
22738;DHT22;11536;50.860;4.286;2024-01-25T14:10:57;11.10;99.90
22738;DHT22;11536;50.860;4.286;2024-01-25T14:13:23;11.10;99.90
22738;DHT22;11536;50.860;4.286;2024-01-25T14:15:48;11.20;99.90
22738;DHT22;11536;50.860;4.286;2024-01-25T14:18:14;11.20;99.90
22738;DHT22;11536;50.860;4.286;2024-01-25T14:20:39;11.20;99.90
22738;DHT22;11536;50.860;4.286;2024-01-25T14:23:05;11.20;99.90
22738;DHT22;11536;50.860;4.286;2024-01-25T14:25:31;11.20;99.90
22738;DHT22;11536;50.860;4.286;2024-01-25T14:27:56;11.20;99.90
22738;DHT22;11536;50.860;4.286;2024-01-25T14:30:22;11.30;99.90
22738;DHT22;11536;50.860;4.286;2024-01-25T14:32:47;11.30;99.90
22738;DHT22;11536;50.860;4.286;2024-01-25T14:35:13;11.30;99.90
22738;DHT22;11536;50.860;4.286;2024-01-25T14:37:38;11.40;99.90
22738;DHT22;11536;50.860;4.286;2024-01-25T14:40:04;11.30;99.90
22738;DHT22;11536;50.860;4.286;2024-01-25T14:42:30;11.30;99.90
22738;DHT22;11536;50.860;4.286;2024-01-25T14:44:56;11.40;99.90
22738;DHT22;11536;50.860;4.286;2024-01-25T14:47:21;11.40;99.90
22738;DHT22;11536;50.860;4.286;2024-01-25T14:49:51;11.40;99.90
22738;DHT22;11536;50.860;4.286;2024-01-25T14:52:17;11.40;99.90
22738;DHT22;11536;50.860;4.286;2024-01-25T14:54:43;11.40;99.90
22738;DHT22;11536;50.860;4.286;2024-01-25T14:57:09;11.40;99.90
22738;DHT22;11536;50.860;4.286;2024-01-25T14:59:35;11.40;99.90
22738;DHT22;11536;50.860;4.286;2024-01-25T15:02:00;11.40;99.90
22738;DHT22;11536;50.860;4.286;2024-01-25T15:04:26;11.40;99.90
22738;DHT22;11536;50.860;4.286;2024-01-25T15:06:55;11.40;99.90
22738;DHT22;11536;50.860;4.286;2024-01-25T15:09:21;11.40;99.90
22738;DHT22;11536;50.860;4.286;2024-01-25T15:11:46;11.40;99.90
22738;DHT22;11536;50.860;4.286;2024-01-25T15:14:13;11.40;99.90
22738;DHT22;11536;50.860;4.286;2024-01-25T15:16:39;11.40;99.90
22738;DHT22;11536;50.860;4.286;2024-01-25T15:19:06;11.40;99.90
22738;DHT22;11536;50.860;4.286;2024-01-25T15:21:31;11.40;99.90
22738;DHT22;11536;50.860;4.286;2024-01-25T15:23:57;11.40;99.90
22738;DHT22;11536;50.860;4.286;2024-01-25T15:26:23;11.50;99.90
22738;DHT22;11536;50.860;4.286;2024-01-25T15:28:49;11.50;99.90
22738;DHT22;11536;50.860;4.286;2024-01-25T15:31:15;11.50;99.90
22738;DHT22;11536;50.860;4.286;2024-01-25T15:33:41;11.60;99.90
22738;DHT22;11536;50.860;4.286;2024-01-25T15:36:07;11.50;99.90